Time;durP1;ratioP1;P1;durP2;ratioP2;P2;SDS_P1;SDS_P2;PMS_P1;PMS_P2;Temp;Humidity;BMP_temperature;BMP_pressure;BME280_temperature;BME280_humidity;BME280_pressure;Samples;Min_cycle;Max_cycle;Signal;HPM_P1;HPM_P2
2023/04/11 00:02:05;;;;;;;3.25;2.10;;;;;;;;;;4999737;28;20146;-72
2023/04/11 00:04:33;;;;;;;5.63;1.98;;;;;;;;;;5006806;28;20473;-72
2023/04/11 00:06:59;;;;;;;3.28;2.17;;;;;;;;;;5007774;28;20153;-73
2023/04/11 00:09:25;;;;;;;4.53;2.30;;;;;;;;;;5007050;28;20040;-72
2023/04/11 00:11:51;;;;;;;3.78;1.60;;;;;;;;;;4999655;28;20029;-72
2023/04/11 00:14:17;;;;;;;1.90;1.60;;;;;;;;;;5008332;28;20109;-73
2023/04/11 00:16:43;;;;;;;4.00;2.40;;;;;;;;;;5002420;28;20101;-73
2023/04/11 00:19:09;;;;;;;2.47;1.63;;;;;;;;;;4999392;28;20034;-72
2023/04/11 00:21:38;;;;;;;3.55;2.00;;;;;;;;;;5005618;28;20026;-72
2023/04/11 00:24:05;;;;;;;2.83;1.98;;;;;;;;;;5006593;28;20032;-72
2023/04/11 00:26:31;;;;;;;2.53;1.85;;;;;;;;;;4994002;28;20034;-73
2023/04/11 00:28:56;;;;;;;2.83;1.73;;;;;;;;;;5004116;28;20408;-72
2023/04/11 00:31:22;;;;;;;1.90;1.58;;;;;;;;;;5000784;28;20034;-72
2023/04/11 00:33:48;;;;;;;3.47;2.03;;;;;;;;;;5004946;28;20037;-72
2023/04/11 00:36:15;;;;;;;3.95;2.15;;;;;;;;;;5006917;28;20029;-72
2023/04/11 00:38:41;;;;;;;2.55;1.80;;;;;;;;;;5006919;28;20112;-72
2023/04/11 00:41:07;;;;;;;3.67;1.70;;;;;;;;;;5008842;28;20424;-72
2023/04/11 00:43:33;;;;;;;2.17;1.55;;;;;;;;;;5007064;28;20064;-72
2023/04/11 00:46:03;;;;;;;2.28;1.90;;;;;;;;;;5007154;28;20481;-72
2023/04/11 00:48:30;;;;;;;2.20;1.58;;;;;;;;;;5004980;28;20037;-73
2023/04/11 00:50:56;;;;;;;2.72;1.90;;;;;;;;;;5005302;28;20042;-72
2023/04/11 00:53:22;;;;;;;4.75;2.33;;;;;;;;;;5006511;28;20037;-72
2023/04/11 00:55:56;;;;;;;2.90;1.90;;;;;;;;;;5009296;28;20022;-72
2023/04/11 00:58:22;;;;;;;3.28;2.25;;;;;;;;;;4996543;28;20034;-72
2023/04/11 01:00:48;;;;;;;3.80;1.85;;;;;;;;;;5002864;28;20030;-72
2023/04/11 01:03:14;;;;;;;3.25;2.13;;;;;;;;;;4995655;28;20037;-73
2023/04/11 01:05:40;;;;;;;2.67;1.80;;;;;;;;;;5000474;28;20086;-72
2023/04/11 01:08:07;;;;;;;2.47;1.70;;;;;;;;;;5002729;28;20042;-72
2023/04/11 01:10:33;;;;;;;2.83;1.90;;;;;;;;;;5005302;28;20041;-72
2023/04/11 01:13:00;;;;;;;2.15;1.70;;;;;;;;;;5007754;28;20464;-72
2023/04/11 01:15:26;;;;;;;2.80;1.75;;;;;;;;;;5007151;28;20021;-72
2023/04/11 01:17:54;;;;;;;3.97;2.35;;;;;;;;;;4999201;28;20058;-73
2023/04/11 01:20:20;;;;;;;3.60;2.15;;;;;;;;;;5004823;28;20563;-73
2023/04/11 01:22:48;;;;;;;3.08;1.85;;;;;;;;;;4998505;28;20088;-72
2023/04/11 01:25:14;;;;;;;2.83;2.10;;;;;;;;;;5000750;28;20037;-73
2023/04/11 01:27:41;;;;;;;3.53;1.77;;;;;;;;;;5005654;28;20030;-72
2023/04/11 01:30:08;;;;;;;4.10;2.20;;;;;;;;;;5004618;28;20439;-72
2023/04/11 01:32:34;;;;;;;2.47;1.90;;;;;;;;;;5005681;28;20030;-73
2023/04/11 01:35:00;;;;;;;2.85;2.05;;;;;;;;;;5006580;28;20044;-72
2023/04/11 01:37:26;;;;;;;3.70;1.77;;;;;;;;;;4984028;28;20134;-72
2023/04/11 01:39:52;;;;;;;2.13;1.40;;;;;;;;;;5000821;28;20081;-72
2023/04/11 01:42:19;;;;;;;3.03;1.63;;;;;;;;;;4999914;28;20052;-72
2023/04/11 01:44:45;;;;;;;2.25;1.75;;;;;;;;;;5000738;28;20121;-73
2023/04/11 01:47:11;;;;;;;3.03;2.10;;;;;;;;;;5005038;28;20018;-72
2023/04/11 01:49:38;;;;;;;2.83;2.08;;;;;;;;;;4998984;28;20060;-72
2023/04/11 01:52:04;;;;;;;3.40;2.13;;;;;;;;;;5004242;28;20037;-72
2023/04/11 01:54:30;;;;;;;5.97;1.90;;;;;;;;;;5005207;28;20037;-72
2023/04/11 01:56:56;;;;;;;3.08;1.75;;;;;;;;;;5003857;28;20021;-72
2023/04/11 01:59:22;;;;;;;2.50;1.70;;;;;;;;;;5007099;28;20025;-73
2023/04/11 02:01:48;;;;;;;2.85;1.73;;;;;;;;;;5004348;28;20018;-72
2023/04/11 02:04:14;;;;;;;2.53;1.75;;;;;;;;;;5006204;28;20385;-72
2023/04/11 02:06:40;;;;;;;2.30;1.45;;;;;;;;;;5003012;28;20469;-72
2023/04/11 02:09:06;;;;;;;3.75;2.30;;;;;;;;;;5000935;28;20033;-72
2023/04/11 02:11:32;;;;;;;3.38;2.00;;;;;;;;;;5002113;28;20054;-73
2023/04/11 02:13:58;;;;;;;2.92;1.52;;;;;;;;;;5000984;28;20080;-72
2023/04/11 02:16:28;;;;;;;2.65;1.88;;;;;;;;;;5004607;28;20029;-72
2023/04/11 02:18:54;;;;;;;2.33;1.55;;;;;;;;;;5004079;28;20034;-72
2023/04/11 02:21:20;;;;;;;4.03;2.20;;;;;;;;;;5002895;28;20034;-72
2023/04/11 02:23:46;;;;;;;3.35;1.83;;;;;;;;;;5004599;28;20022;-72
2023/04/11 02:26:12;;;;;;;3.08;2.05;;;;;;;;;;5003178;28;20474;-72
2023/04/11 02:28:38;;;;;;;5.07;2.33;;;;;;;;;;5005966;28;20029;-72
2023/04/11 02:31:04;;;;;;;2.80;1.65;;;;;;;;;;5006994;28;20025;-73
2023/04/11 02:33:31;;;;;;;3.33;1.95;;;;;;;;;;4998706;28;20418;-72
2023/04/11 02:35:57;;;;;;;3.35;1.63;;;;;;;;;;5006222;28;20041;-72
2023/04/11 02:38:23;;;;;;;3.00;1.80;;;;;;;;;;4995818;28;20037;-72
2023/04/11 02:40:49;;;;;;;3.58;1.85;;;;;;;;;;4996799;28;20572;-72
2023/04/11 02:43:15;;;;;;;3.72;2.20;;;;;;;;;;5002677;28;20050;-72
2023/04/11 02:45:41;;;;;;;2.90;1.60;;;;;;;;;;5003254;28;20121;-72
2023/04/11 02:48:07;;;;;;;4.22;2.30;;;;;;;;;;5003771;28;20026;-72
2023/04/11 02:50:33;;;;;;;3.55;2.03;;;;;;;;;;5004539;28;20030;-72
2023/04/11 02:52:59;;;;;;;2.55;1.75;;;;;;;;;;5006251;28;20025;-72
2023/04/11 02:55:25;;;;;;;2.38;1.90;;;;;;;;;;5004553;28;20504;-72
2023/04/11 02:57:51;;;;;;;2.17;1.63;;;;;;;;;;5002846;28;20041;-72
2023/04/11 03:00:21;;;;;;;6.25;1.92;;;;;;;;;;5003850;28;20034;-72
2023/04/11 03:02:48;;;;;;;3.42;1.85;;;;;;;;;;4991482;28;20117;-72
2023/04/11 03:05:14;;;;;;;2.97;1.90;;;;;;;;;;5000960;28;20489;-72
2023/04/11 03:07:40;;;;;;;4.05;1.85;;;;;;;;;;4999170;28;20034;-72
2023/04/11 03:10:07;;;;;;;2.75;1.60;;;;;;;;;;4994334;28;20088;-72
2023/04/11 03:12:33;;;;;;;2.45;1.58;;;;;;;;;;5001591;28;20113;-72
2023/04/11 03:14:59;;;;;;;2.35;1.52;;;;;;;;;;5001678;28;20044;-72
2023/04/11 03:17:25;;;;;;;3.50;2.20;;;;;;;;;;4996803;28;20081;-72
2023/04/11 03:19:51;;;;;;;3.55;1.95;;;;;;;;;;5000899;28;20030;-72
2023/04/11 03:22:16;;;;;;;6.13;1.92;;;;;;;;;;4999696;28;20037;-72
2023/04/11 03:24:42;;;;;;;4.15;2.17;;;;;;;;;;4992529;28;20594;-72
2023/04/11 03:27:08;;;;;;;3.00;2.03;;;;;;;;;;5002540;28;20432;-72
2023/04/11 03:29:34;;;;;;;3.08;2.08;;;;;;;;;;5002464;28;20022;-72
2023/04/11 03:32:00;;;;;;;3.20;1.80;;;;;;;;;;5006010;28;20481;-72
2023/04/11 03:34:26;;;;;;;2.22;1.75;;;;;;;;;;5003162;28;20504;-72
2023/04/11 03:36:52;;;;;;;2.42;1.85;;;;;;;;;;5005874;28;20057;-73
2023/04/11 03:39:19;;;;;;;3.08;1.77;;;;;;;;;;5007716;28;20037;-72
2023/04/11 03:41:45;;;;;;;2.50;1.60;;;;;;;;;;5002752;28;20535;-72
2023/04/11 03:44:11;;;;;;;3.08;1.95;;;;;;;;;;5009710;28;20038;-72
2023/04/11 03:46:37;;;;;;;3.80;2.00;;;;;;;;;;5003360;28;20044;-72
2023/04/11 03:49:03;;;;;;;2.38;1.58;;;;;;;;;;5005188;28;20022;-73
2023/04/11 03:51:30;;;;;;;3.58;2.08;;;;;;;;;;4999236;28;20091;-72
2023/04/11 03:53:56;;;;;;;4.43;1.85;;;;;;;;;;5000436;28;20026;-73
2023/04/11 03:56:25;;;;;;;4.25;2.05;;;;;;;;;;5005420;28;20624;-73
2023/04/11 03:58:51;;;;;;;2.13;1.58;;;;;;;;;;5006899;28;20025;-72
2023/04/11 04:01:17;;;;;;;3.05;1.80;;;;;;;;;;5008385;28;20037;-72
2023/04/11 04:03:43;;;;;;;4.75;2.05;;;;;;;;;;5007353;28;20033;-72
2023/04/11 04:06:09;;;;;;;3.72;1.77;;;;;;;;;;5008322;28;20034;-73
2023/04/11 04:08:35;;;;;;;2.28;1.75;;;;;;;;;;5007996;28;20057;-73
2023/04/11 04:11:04;;;;;;;2.75;1.95;;;;;;;;;;4998739;28;20481;-72
2023/04/11 04:13:30;;;;;;;3.58;1.95;;;;;;;;;;4992653;28;20022;-73
2023/04/11 04:15:57;;;;;;;2.25;1.80;;;;;;;;;;5001365;28;20039;-72
2023/04/11 04:18:22;;;;;;;2.45;1.65;;;;;;;;;;5006737;28;20033;-72
2023/04/11 04:20:48;;;;;;;1.88;1.63;;;;;;;;;;5006944;28;20023;-72
2023/04/11 04:23:16;;;;;;;3.83;1.92;;;;;;;;;;5001008;28;20805;-72
2023/04/11 04:25:44;;;;;;;2.92;1.75;;;;;;;;;;5005303;28;20144;-72
2023/04/11 04:28:10;;;;;;;3.75;2.00;;;;;;;;;;5006171;28;20037;-72
2023/04/11 04:30:36;;;;;;;2.67;1.73;;;;;;;;;;5003967;28;20030;-72
2023/04/11 04:33:02;;;;;;;2.72;1.90;;;;;;;;;;5006696;28;20033;-72
2023/04/11 04:35:28;;;;;;;3.85;1.70;;;;;;;;;;5006347;28;20038;-72
2023/04/11 04:37:54;;;;;;;2.85;1.60;;;;;;;;;;5006552;28;20037;-72
2023/04/11 04:40:21;;;;;;;5.72;2.05;;;;;;;;;;5008188;28;20385;-73
2023/04/11 04:42:56;;;;;;;2.55;1.40;;;;;;;;;;5005478;28;20057;-72
2023/04/11 04:45:22;;;;;;;2.95;1.90;;;;;;;;;;5000274;28;20104;-72
2023/04/11 04:47:48;;;;;;;2.65;1.63;;;;;;;;;;5003040;28;20117;-72
2023/04/11 04:50:15;;;;;;;2.95;1.80;;;;;;;;;;5004960;28;20040;-72
2023/04/11 04:52:41;;;;;;;3.35;2.05;;;;;;;;;;4999078;28;20472;-72
2023/04/11 04:55:07;;;;;;;3.45;1.73;;;;;;;;;;5003789;28;20492;-72
2023/04/11 04:57:33;;;;;;;2.78;1.48;;;;;;;;;;5007900;28;20561;-72
2023/04/11 04:59:59;;;;;;;3.33;1.90;;;;;;;;;;4999654;28;20030;-72
2023/04/11 05:02:25;;;;;;;1.83;1.50;;;;;;;;;;5007023;28;20064;-72
2023/04/11 05:04:54;;;;;;;3.17;1.58;;;;;;;;;;5004280;28;20041;-72
2023/04/11 05:07:20;;;;;;;2.60;1.85;;;;;;;;;;5007652;28;20049;-72
2023/04/11 05:09:46;;;;;;;3.30;1.90;;;;;;;;;;5005768;28;20469;-72
2023/04/11 05:12:12;;;;;;;2.65;1.83;;;;;;;;;;5009371;28;20029;-71
2023/04/11 05:14:39;;;;;;;1.35;1.20;;;;;;;;;;5007811;28;20030;-72
2023/04/11 05:17:05;;;;;;;2.97;1.77;;;;;;;;;;5008795;28;20056;-73
2023/04/11 05:19:31;;;;;;;2.58;1.50;;;;;;;;;;5008327;28;20025;-72
2023/04/11 05:21:57;;;;;;;2.35;1.33;;;;;;;;;;5001846;28;20026;-72
2023/04/11 05:24:23;;;;;;;2.25;1.48;;;;;;;;;;5002351;28;20117;-73
2023/04/11 05:26:49;;;;;;;3.42;1.90;;;;;;;;;;5001293;28;20076;-72
2023/04/11 05:29:15;;;;;;;2.60;1.70;;;;;;;;;;5001739;28;20026;-73
2023/04/11 05:31:41;;;;;;;3.60;2.08;;;;;;;;;;5008323;28;20559;-72
2023/04/11 05:34:07;;;;;;;1.58;1.35;;;;;;;;;;5004069;28;20029;-72
2023/04/11 05:36:33;;;;;;;2.65;1.70;;;;;;;;;;5005561;28;20030;-73
2023/04/11 05:38:59;;;;;;;2.85;1.80;;;;;;;;;;5005467;28;20088;-72
2023/04/11 05:41:26;;;;;;;2.67;1.50;;;;;;;;;;5002645;28;20056;-72
2023/04/11 05:43:52;;;;;;;1.40;1.10;;;;;;;;;;5002838;28;20056;-71
2023/04/11 05:46:18;;;;;;;3.15;1.67;;;;;;;;;;5015742;28;20033;-71
2023/04/11 05:48:44;;;;;;;2.40;1.60;;;;;;;;;;5019715;28;20088;-72
2023/04/11 05:51:10;;;;;;;3.95;1.70;;;;;;;;;;5024681;28;20025;-71
2023/04/11 05:53:36;;;;;;;2.67;1.45;;;;;;;;;;5025851;28;20071;-72
2023/04/11 05:56:02;;;;;;;2.20;1.50;;;;;;;;;;5025405;28;20021;-72
2023/04/11 05:58:29;;;;;;;2.35;1.50;;;;;;;;;;5023129;28;20040;-72
2023/04/11 06:00:56;;;;;;;1.85;1.40;;;;;;;;;;5024135;28;20037;-72
2023/04/11 06:03:22;;;;;;;2.53;1.50;;;;;;;;;;5022706;28;20065;-72
2023/04/11 06:05:48;;;;;;;1.70;1.30;;;;;;;;;;5025962;28;20481;-72
2023/04/11 06:08:14;;;;;;;3.50;1.30;;;;;;;;;;5011895;28;20030;-71
2023/04/11 06:10:40;;;;;;;1.75;1.25;;;;;;;;;;5026017;28;20417;-72
2023/04/11 06:13:06;;;;;;;5.85;1.58;;;;;;;;;;5021987;28;20025;-72
2023/04/11 06:15:32;;;;;;;1.83;1.40;;;;;;;;;;5026199;28;20047;-72
2023/04/11 06:17:58;;;;;;;3.60;1.40;;;;;;;;;;5022753;28;20033;-71
2023/04/11 06:20:24;;;;;;;2.20;1.50;;;;;;;;;;5025533;28;20037;-72
2023/04/11 06:22:50;;;;;;;1.95;1.40;;;;;;;;;;5017610;28;20032;-72
2023/04/11 06:25:19;;;;;;;2.25;1.50;;;;;;;;;;5022121;28;20043;-73
2023/04/11 06:27:45;;;;;;;3.45;1.25;;;;;;;;;;5025231;28;20075;-72
2023/04/11 06:30:11;;;;;;;3.20;2.00;;;;;;;;;;5025526;28;20025;-72
2023/04/11 06:32:37;;;;;;;1.77;1.27;;;;;;;;;;5011827;28;20033;-72
2023/04/11 06:35:04;;;;;;;2.58;1.45;;;;;;;;;;5022787;28;20029;-72
2023/04/11 06:37:30;;;;;;;4.00;2.13;;;;;;;;;;5023694;28;20102;-73
2023/04/11 06:39:56;;;;;;;3.85;1.90;;;;;;;;;;5023054;28;20029;-72
2023/04/11 06:42:22;;;;;;;4.13;1.80;;;;;;;;;;5019623;28;20412;-72
2023/04/11 06:44:48;;;;;;;3.00;1.70;;;;;;;;;;5022758;28;20087;-72
2023/04/11 06:47:14;;;;;;;2.30;1.60;;;;;;;;;;5018888;28;20496;-72
2023/04/11 06:49:40;;;;;;;1.95;1.60;;;;;;;;;;5025024;28;20029;-72
2023/04/11 06:52:06;;;;;;;2.42;1.42;;;;;;;;;;5019373;28;20105;-73
2023/04/11 06:54:32;;;;;;;2.47;1.55;;;;;;;;;;5026084;28;20057;-72
2023/04/11 06:56:58;;;;;;;2.53;1.30;;;;;;;;;;5013559;28;20041;-72
2023/04/11 06:59:24;;;;;;;1.38;1.10;;;;;;;;;;5014547;28;20512;-72
2023/04/11 07:01:50;;;;;;;2.95;1.65;;;;;;;;;;5024165;28;20029;-72
2023/04/11 07:04:16;;;;;;;1.98;1.30;;;;;;;;;;5024789;28;20404;-72
2023/04/11 07:06:42;;;;;;;1.85;1.40;;;;;;;;;;5026483;28;20029;-72
2023/04/11 07:09:08;;;;;;;2.30;1.17;;;;;;;;;;5027585;28;20041;-72
2023/04/11 07:11:34;;;;;;;2.20;1.67;;;;;;;;;;5025808;28;20036;-72
2023/04/11 07:14:01;;;;;;;3.15;1.65;;;;;;;;;;5025049;28;20428;-75
2023/04/11 07:16:27;;;;;;;3.03;1.73;;;;;;;;;;5009497;28;20025;-74
2023/04/11 07:18:53;;;;;;;3.80;1.58;;;;;;;;;;5027141;28;20536;-74
2023/04/11 07:21:19;;;;;;;1.88;1.48;;;;;;;;;;5017255;28;20034;-75
2023/04/11 07:23:45;;;;;;;3.08;1.77;;;;;;;;;;5018112;28;20030;-76
2023/04/11 07:26:13;;;;;;;2.25;1.58;;;;;;;;;;5022866;28;20049;-75
2023/04/11 07:28:39;;;;;;;1.88;1.48;;;;;;;;;;5012979;28;20097;-75
2023/04/11 07:31:09;;;;;;;2.42;1.40;;;;;;;;;;5008589;28;20068;-80
2023/04/11 07:33:38;;;;;;;2.20;1.50;;;;;;;;;;5007560;28;20080;-79
2023/04/11 07:36:04;;;;;;;2.25;1.30;;;;;;;;;;5016405;28;20030;-79
2023/04/11 07:38:30;;;;;;;3.83;1.58;;;;;;;;;;5015744;28;20041;-79
2023/04/11 07:40:57;;;;;;;1.95;1.50;;;;;;;;;;5018394;28;20113;-79
2023/04/11 07:43:24;;;;;;;1.92;1.40;;;;;;;;;;5024031;28;20064;-77
2023/04/11 07:45:50;;;;;;;2.08;1.50;;;;;;;;;;5012489;28;20057;-80
2023/04/11 07:48:16;;;;;;;1.00;1.00;;;;;;;;;;5022897;28;20499;-82
2023/04/11 07:50:42;;;;;;;2.28;1.60;;;;;;;;;;5022136;28;20026;-80
2023/04/11 07:53:09;;;;;;;1.85;1.35;;;;;;;;;;5019021;28;20025;-80
2023/04/11 07:55:35;;;;;;;1.88;1.40;;;;;;;;;;5011767;28;20034;-79
2023/04/11 07:58:01;;;;;;;3.08;1.67;;;;;;;;;;5011939;28;20634;-76
2023/04/11 08:00:29;;;;;;;1.10;1.05;;;;;;;;;;5024153;28;20032;-82
2023/04/11 08:02:57;;;;;;;3.53;1.65;;;;;;;;;;5022768;28;20140;-78
2023/04/11 08:05:23;;;;;;;1.58;1.33;;;;;;;;;;5021647;28;20025;-77
2023/04/11 08:07:49;;;;;;;2.75;1.30;;;;;;;;;;5011781;28;20022;-77
2023/04/11 08:10:15;;;;;;;2.17;1.58;;;;;;;;;;5018004;28;20532;-78
2023/04/11 08:12:41;;;;;;;2.60;1.42;;;;;;;;;;5027114;28;20030;-79
2023/04/11 08:15:07;;;;;;;2.00;1.38;;;;;;;;;;5018341;28;20361;-78
2023/04/11 08:17:37;;;;;;;3.10;1.70;;;;;;;;;;5008406;28;20025;-78
2023/04/11 08:20:04;;;;;;;1.58;1.08;;;;;;;;;;5026228;28;20451;-78
2023/04/11 08:22:33;;;;;;;3.00;1.25;;;;;;;;;;5019218;28;20443;-77
2023/04/11 08:24:58;;;;;;;2.15;1.45;;;;;;;;;;5019661;28;20037;-78
2023/04/11 08:27:25;;;;;;;2.63;1.48;;;;;;;;;;5013014;28;20053;-77
2023/04/11 08:29:51;;;;;;;3.17;1.52;;;;;;;;;;5022765;28;20419;-79
2023/04/11 08:32:16;;;;;;;3.33;1.50;;;;;;;;;;5028591;28;20021;-77
2023/04/11 08:34:42;;;;;;;2.03;1.17;;;;;;;;;;5027468;28;20030;-77
2023/04/11 08:37:09;;;;;;;1.50;1.30;;;;;;;;;;5026003;28;20103;-87
2023/04/11 08:39:35;;;;;;;1.48;1.10;;;;;;;;;;5023047;28;20559;-77
2023/04/11 08:42:01;;;;;;;1.77;1.38;;;;;;;;;;5024484;28;20682;-79
2023/04/11 08:44:27;;;;;;;3.08;1.20;;;;;;;;;;5029811;28;20017;-75
2023/04/11 08:46:53;;;;;;;2.08;0.93;;;;;;;;;;5024761;28;21175;-77
2023/04/11 08:49:19;;;;;;;2.10;1.20;;;;;;;;;;5020389;28;20549;-72
2023/04/11 08:51:45;;;;;;;1.10;1.00;;;;;;;;;;5021763;28;20496;-75
2023/04/11 08:54:11;;;;;;;1.58;1.17;;;;;;;;;;5025278;28;20324;-76
2023/04/11 08:56:40;;;;;;;1.88;1.05;;;;;;;;;;5020819;28;20073;-75
2023/04/11 08:59:05;;;;;;;1.80;1.13;;;;;;;;;;5024684;28;20239;-79
2023/04/11 09:01:32;;;;;;;1.63;0.90;;;;;;;;;;5025708;28;20060;-76
2023/04/11 09:03:59;;;;;;;1.27;0.93;;;;;;;;;;5026922;28;20083;-76
2023/04/11 09:06:29;;;;;;;1.27;1.00;;;;;;;;;;5019860;28;20083;-77
2023/04/11 09:08:55;;;;;;;1.42;0.90;;;;;;;;;;5026399;28;20040;-77
2023/04/11 09:11:21;;;;;;;0.70;0.70;;;;;;;;;;5027301;28;20037;-77
2023/04/11 09:13:47;;;;;;;3.20;1.25;;;;;;;;;;5026577;28;20029;-75
2023/04/11 09:16:13;;;;;;;1.10;0.77;;;;;;;;;;5020237;28;20028;-76
2023/04/11 09:18:43;;;;;;;1.67;1.15;;;;;;;;;;5021667;28;20499;-76
2023/04/11 09:21:10;;;;;;;6.28;0.82;;;;;;;;;;5020812;28;20513;-76
2023/04/11 09:23:36;;;;;;;2.05;1.05;;;;;;;;;;5022859;28;20158;-89
2023/04/11 09:26:04;;;;;;;0.70;0.60;;;;;;;;;;5016054;28;20037;-80
2023/04/11 09:28:39;;;;;;;0.52;0.50;;;;;;;;;;5026612;28;20424;-81
2023/04/11 09:31:05;;;;;;;2.88;0.90;;;;;;;;;;5023843;28;20392;-80
2023/04/11 09:33:31;;;;;;;7.15;0.80;;;;;;;;;;5019759;28;20032;-80
2023/04/11 09:35:57;;;;;;;1.48;0.77;;;;;;;;;;5023405;28;20025;-84
2023/04/11 09:38:33;;;;;;;0.90;0.80;;;;;;;;;;5025497;28;20025;-77
2023/04/11 09:41:02;;;;;;;1.55;1.00;;;;;;;;;;5023542;28;20061;-83
2023/04/11 09:43:58;;;;;;;0.77;0.65;;;;;;;;;;5018592;28;20056;-83
2023/04/11 09:46:24;;;;;;;1.25;0.93;;;;;;;;;;5006114;28;20040;-82
2023/04/11 09:48:51;;;;;;;0.75;0.50;;;;;;;;;;5020433;28;20021;-84
2023/04/11 09:51:18;;;;;;;1.00;0.80;;;;;;;;;;5022265;28;20101;-85
2023/04/11 09:53:44;;;;;;;0.88;0.50;;;;;;;;;;5023544;28;20044;-88
2023/04/11 09:56:10;;;;;;;1.13;1.00;;;;;;;;;;5022776;28;20032;-85
2023/04/11 09:58:37;;;;;;;1.80;1.00;;;;;;;;;;5025029;28;20107;-84
2023/04/11 10:01:06;;;;;;;2.95;0.77;;;;;;;;;;5026160;28;20025;-83
2023/04/11 10:03:33;;;;;;;1.00;0.73;;;;;;;;;;5022003;28;20075;-77
2023/04/11 10:06:47;;;;;;;1.05;0.73;;;;;;;;;;5024237;28;20033;-82
2023/04/11 10:09:14;;;;;;;0.93;0.70;;;;;;;;;;4989936;28;20052;-81
2023/04/11 10:11:41;;;;;;;1.33;0.80;;;;;;;;;;5013504;28;20113;-81
2023/04/11 10:14:07;;;;;;;2.38;1.02;;;;;;;;;;5021651;28;20373;-84
2023/04/11 10:16:34;;;;;;;1.85;0.70;;;;;;;;;;5023095;28;20065;-85
2023/04/11 10:19:03;;;;;;;0.50;0.50;;;;;;;;;;5018300;28;20500;-85
2023/04/11 10:21:29;;;;;;;0.60;0.60;;;;;;;;;;5019807;28;20043;-87
2023/04/11 10:24:11;;;;;;;1.00;0.93;;;;;;;;;;5020583;28;20033;-86
2023/04/11 10:26:56;;;;;;;0.90;0.57;;;;;;;;;;5013078;28;20030;-88
2023/04/11 10:29:28;;;;;;;2.15;0.68;;;;;;;;;;5023313;28;20075;-81
2023/04/11 10:32:10;;;;;;;0.93;0.50;;;;;;;;;;5024016;28;20029;-81
2023/04/11 10:34:40;;;;;;;1.25;0.50;;;;;;;;;;5020376;28;20030;-79
2023/04/11 10:37:07;;;;;;;2.35;1.25;;;;;;;;;;5015120;28;20022;-85
2023/04/11 10:39:51;;;;;;;1.17;0.57;;;;;;;;;;5014319;28;20473;-87
2023/04/11 10:42:26;;;;;;;1.77;0.90;;;;;;;;;;5016129;28;20440;-87
2023/04/11 10:45:11;;;;;;;0.95;0.65;;;;;;;;;;5018612;28;20102;-83
2023/04/11 10:47:37;;;;;;;2.08;0.73;;;;;;;;;;5021929;28;20026;-81
2023/04/11 10:50:03;;;;;;;2.13;0.80;;;;;;;;;;5020442;28;20075;-85
2023/04/11 10:52:37;;;;;;;0.63;0.60;;;;;;;;;;5021961;28;20333;-88
2023/04/11 10:55:15;;;;;;;1.00;0.50;;;;;;;;;;5017799;28;20030;-83
2023/04/11 10:58:00;;;;;;;0.50;0.50;;;;;;;;;;5021871;28;20036;-91
2023/04/11 11:00:29;;;;;;;2.47;0.70;;;;;;;;;;5022086;28;20109;-89
2023/04/11 11:02:56;;;;;;;0.75;0.60;;;;;;;;;;5021874;28;20033;-88
2023/04/11 11:05:23;;;;;;;0.75;0.70;;;;;;;;;;5023848;28;20503;-87
2023/04/11 11:07:50;;;;;;;1.40;0.70;;;;;;;;;;5022045;28;20056;-79
2023/04/11 11:10:34;;;;;;;0.52;0.52;;;;;;;;;;5018851;28;20026;-74
2023/04/11 11:13:00;;;;;;;0.73;0.50;;;;;;;;;;5024768;28;20063;-79
2023/04/11 11:15:26;;;;;;;1.77;0.50;;;;;;;;;;5022064;28;20025;-76
2023/04/11 11:17:52;;;;;;;0.65;0.57;;;;;;;;;;5017734;28;20025;-80
2023/04/11 11:20:21;;;;;;;0.60;0.50;;;;;;;;;;5025189;28;20170;-79
2023/04/11 11:23:04;;;;;;;0.57;0.50;;;;;;;;;;5017804;28;20034;-77
2023/04/11 11:25:30;;;;;;;4.25;1.02;;;;;;;;;;5014869;28;20022;-79
2023/04/11 11:27:59;;;;;;;0.60;0.60;;;;;;;;;;5026975;28;20032;-79
2023/04/11 11:30:26;;;;;;;0.60;0.60;;;;;;;;;;5021377;28;20020;-77
2023/04/11 11:32:52;;;;;;;0.73;0.60;;;;;;;;;;5027000;28;20018;-79
2023/04/11 11:35:18;;;;;;;1.60;0.80;;;;;;;;;;5024298;28;20113;-78
2023/04/11 11:37:44;;;;;;;0.70;0.47;;;;;;;;;;5019731;28;20104;-78
2023/04/11 11:40:13;;;;;;;1.65;0.75;;;;;;;;;;5022656;28;20029;-77
2023/04/11 11:42:40;;;;;;;0.30;0.30;;;;;;;;;;5013698;28;20131;-79
2023/04/11 11:45:15;;;;;;;0.85;0.40;;;;;;;;;;5004611;28;20422;-77
2023/04/11 11:47:45;;;;;;;0.55;0.55;;;;;;;;;;5005835;28;20033;-80
2023/04/11 11:50:11;;;;;;;1.58;0.65;;;;;;;;;;5012567;28;20033;-76
2023/04/11 11:52:39;;;;;;;2.53;0.45;;;;;;;;;;5010334;28;20464;-76
2023/04/11 11:55:28;;;;;;;0.17;0.17;;;;;;;;;;5010231;28;20215;-76
2023/04/11 11:57:58;;;;;;;1.23;0.60;;;;;;;;;;5014422;28;20452;-77
2023/04/11 12:00:25;;;;;;;1.25;0.55;;;;;;;;;;5019187;28;20029;-73
2023/04/11 12:02:51;;;;;;;0.73;0.50;;;;;;;;;;5018803;28;20176;-85
2023/04/11 12:05:17;;;;;;;0.30;0.30;;;;;;;;;;5020228;28;20041;-80
2023/04/11 12:07:44;;;;;;;2.30;0.60;;;;;;;;;;5020003;28;20013;-75
2023/04/11 12:10:13;;;;;;;1.70;0.75;;;;;;;;;;5009028;28;20476;-76
2023/04/11 12:12:40;;;;;;;0.82;0.57;;;;;;;;;;5015955;28;20077;-79
2023/04/11 12:15:10;;;;;;;0.63;0.30;;;;;;;;;;5013365;28;20026;-82
2023/04/11 12:17:37;;;;;;;2.83;0.73;;;;;;;;;;5020073;28;20026;-86
2023/04/11 12:20:06;;;;;;;0.57;0.50;;;;;;;;;;5011833;28;20040;-85
2023/04/11 12:22:33;;;;;;;0.65;0.40;;;;;;;;;;5013692;28;20032;-88
2023/04/11 12:25:19;;;;;;;0.47;0.47;;;;;;;;;;5008996;28;20654;-85
2023/04/11 12:27:45;;;;;;;1.52;0.70;;;;;;;;;;5015398;28;20030;-81
2023/04/11 12:30:15;;;;;;;1.33;0.50;;;;;;;;;;5011088;28;20484;-78
2023/04/11 12:32:41;;;;;;;0.38;0.38;;;;;;;;;;5015112;28;20053;-89
2023/04/11 12:35:07;;;;;;;0.35;0.35;;;;;;;;;;5015449;28;20030;-83
2023/04/11 12:37:34;;;;;;;0.52;0.40;;;;;;;;;;5013712;28;20018;-79
2023/04/11 12:40:00;;;;;;;0.60;0.43;;;;;;;;;;5010203;28;20028;-76
2023/04/11 12:42:26;;;;;;;1.38;0.32;;;;;;;;;;5012315;28;20041;-81
2023/04/11 12:44:52;;;;;;;1.10;0.25;;;;;;;;;;5011770;28;20037;-82
2023/04/11 12:47:18;;;;;;;3.40;0.95;;;;;;;;;;5012658;28;20030;-80
2023/04/11 12:49:44;;;;;;;0.65;0.22;;;;;;;;;;5016462;28;20028;-85
2023/04/11 12:52:10;;;;;;;0.50;0.50;;;;;;;;;;5005267;28;20973;-86
2023/04/11 12:54:36;;;;;;;0.55;0.55;;;;;;;;;;5013344;28;20034;-80
2023/04/11 12:57:11;;;;;;;1.80;0.80;;;;;;;;;;5014378;28;20087;-86
2023/04/11 12:59:37;;;;;;;0.88;0.88;;;;;;;;;;5017460;28;20554;-81
2023/04/11 13:02:03;;;;;;;1.20;1.05;;;;;;;;;;5012410;28;20026;-84
2023/04/11 13:04:29;;;;;;;1.27;0.88;;;;;;;;;;5010754;28;20055;-88
2023/04/11 13:06:59;;;;;;;1.88;1.00;;;;;;;;;;5013055;28;20034;-85
2023/04/11 13:09:28;;;;;;;2.50;1.17;;;;;;;;;;5015177;28;20018;-77
2023/04/11 13:11:55;;;;;;;2.05;1.20;;;;;;;;;;5013788;28;20044;-83
2023/04/11 13:14:21;;;;;;;2.05;1.42;;;;;;;;;;5006660;28;20556;-82
2023/04/11 13:16:47;;;;;;;4.07;1.38;;;;;;;;;;5008965;28;20124;-81
2023/04/11 13:19:13;;;;;;;3.63;1.35;;;;;;;;;;5010562;28;20021;-80
2023/04/11 13:21:39;;;;;;;1.38;1.08;;;;;;;;;;5010160;28;20133;-82
2023/04/11 13:24:06;;;;;;;1.27;0.90;;;;;;;;;;5015565;28;20188;-89
2023/04/11 13:26:32;;;;;;;3.13;1.33;;;;;;;;;;5011780;28;20489;-90
2023/04/11 13:28:58;;;;;;;3.15;1.50;;;;;;;;;;5010363;28;20435;-87
2023/04/11 13:31:25;;;;;;;1.67;1.00;;;;;;;;;;5012937;28;20017;-86
2023/04/11 13:33:58;;;;;;;1.25;1.08;;;;;;;;;;5014100;28;20032;-84
2023/04/11 13:36:25;;;;;;;1.20;0.88;;;;;;;;;;5006980;28;20033;-90
2023/04/11 13:38:52;;;;;;;1.38;1.13;;;;;;;;;;5011582;28;20108;-88
2023/04/11 13:41:18;;;;;;;2.65;1.73;;;;;;;;;;5013639;28;20503;-88
2023/04/11 13:43:44;;;;;;;4.18;0.98;;;;;;;;;;5009804;28;20140;-90
2023/04/11 13:46:10;;;;;;;2.15;1.05;;;;;;;;;;5004815;28;20362;-92
2023/04/11 13:48:37;;;;;;;1.27;1.00;;;;;;;;;;4998804;28;20033;-89
2023/04/11 13:51:04;;;;;;;2.03;1.00;;;;;;;;;;5013714;28;20035;-93
2023/04/11 13:53:30;;;;;;;1.15;0.80;;;;;;;;;;5015766;28;20251;-85
2023/04/11 13:55:56;;;;;;;3.00;0.90;;;;;;;;;;5020210;28;20029;-91
2023/04/11 13:58:22;;;;;;;1.13;0.90;;;;;;;;;;5022673;28;20044;-85
2023/04/11 14:00:50;;;;;;;1.88;0.90;;;;;;;;;;5017471;28;20034;-83
2023/04/11 14:03:16;;;;;;;1.25;0.77;;;;;;;;;;5012116;28;20123;-84
2023/04/11 14:05:42;;;;;;;1.35;0.75;;;;;;;;;;5015435;28;20112;-84
2023/04/11 14:08:08;;;;;;;2.65;0.98;;;;;;;;;;5011123;28;20175;-82
2023/04/11 14:10:34;;;;;;;1.05;0.90;;;;;;;;;;5008836;28;20504;-79
2023/04/11 14:13:01;;;;;;;2.65;1.20;;;;;;;;;;5012619;28;20417;-76
2023/04/11 14:15:27;;;;;;;2.10;1.67;;;;;;;;;;5014160;28;20475;-81
2023/04/11 14:17:53;;;;;;;1.83;1.67;;;;;;;;;;5015795;28;20018;-82
2023/04/11 14:20:19;;;;;;;1.20;1.00;;;;;;;;;;5014830;28;20033;-87
2023/04/11 14:22:45;;;;;;;4.10;1.15;;;;;;;;;;5016956;28;20044;-88
2023/04/11 14:25:14;;;;;;;2.45;1.40;;;;;;;;;;5017884;28;20025;-85
2023/04/11 14:27:40;;;;;;;2.63;1.40;;;;;;;;;;5006486;28;20022;-84
2023/04/11 14:30:10;;;;;;;2.70;1.58;;;;;;;;;;5009236;28;20479;-85
2023/04/11 14:32:36;;;;;;;3.30;1.40;;;;;;;;;;5012433;28;20022;-86
2023/04/11 14:35:03;;;;;;;5.15;1.35;;;;;;;;;;5013577;28;20041;-85
2023/04/11 14:37:30;;;;;;;1.05;0.98;;;;;;;;;;5021268;28;20033;-85
2023/04/11 14:39:56;;;;;;;2.05;1.08;;;;;;;;;;5014009;28;20084;-85
2023/04/11 14:42:22;;;;;;;1.55;1.08;;;;;;;;;;5011668;28;20045;-84
2023/04/11 14:44:49;;;;;;;2.65;1.10;;;;;;;;;;5011022;28;20026;-84